createdAt,value
2019-04-29T00:02:16.350Z,47.80
2019-04-29T00:04:43.580Z,42.78
2019-04-29T00:07:11.060Z,42.45
2019-04-29T00:09:38.367Z,40.20
2019-04-29T00:12:05.573Z,32.58
2019-04-29T00:14:33.604Z,33.42
2019-04-29T00:17:17.402Z,30.12
2019-04-29T00:19:51.965Z,30.90
2019-04-29T00:22:19.308Z,26.05
2019-04-29T00:24:46.605Z,24.75
2019-04-29T00:27:13.825Z,24.25
2019-04-29T00:29:43.166Z,24.45
2019-04-29T00:32:10.609Z,25.75
2019-04-29T00:34:37.872Z,26.77
2019-04-29T00:37:15.861Z,27.82
2019-04-29T00:39:47.709Z,27.87
2019-04-29T00:42:31.739Z,28.00
2019-04-29T00:44:59.022Z,28.45
2019-04-29T00:47:26.275Z,28.55
2019-04-29T00:49:54.029Z,36.95
2019-04-29T00:52:21.492Z,36.00
2019-04-29T00:54:50.545Z,43.68
2019-04-29T00:57:17.814Z,39.27
2019-04-29T00:59:45.062Z,34.78
2019-04-29T01:02:12.287Z,39.20
2019-04-29T01:04:39.598Z,42.30
2019-04-29T01:07:06.962Z,41.98
2019-04-29T01:09:35.632Z,42.95
2019-04-29T01:12:03.143Z,45.88
2019-04-29T01:14:30.611Z,41.08
2019-04-29T01:16:57.840Z,47.40
2019-04-29T01:19:25.146Z,43.60
2019-04-29T01:21:52.394Z,48.10
2019-04-29T01:24:19.749Z,45.58
2019-04-29T01:26:48.848Z,45.33
2019-04-29T01:29:17.891Z,47.10
2019-04-29T01:31:45.160Z,40.98
2019-04-29T01:34:14.226Z,45.25
2019-04-29T01:36:43.260Z,46.08
2019-04-29T01:39:10.917Z,41.68
2019-04-29T01:41:48.588Z,41.68
2019-04-29T01:44:20.473Z,44.42
2019-04-29T01:46:48.055Z,48.20
2019-04-29T01:49:15.362Z,44.00
2019-04-29T01:51:42.630Z,41.77
2019-04-29T01:54:10.416Z,44.42
2019-04-29T01:56:37.723Z,40.38
2019-04-29T01:59:06.064Z,44.77
2019-04-29T02:01:33.335Z,41.30
2019-04-29T02:04:00.579Z,40.55
2019-04-29T02:06:27.825Z,45.43
2019-04-29T02:08:56.518Z,41.45
2019-04-29T02:11:23.760Z,42.45
2019-04-29T02:13:51.108Z,47.48
2019-04-29T02:16:18.392Z,50.83
2019-04-29T02:18:45.606Z,44.65
2019-04-29T02:21:12.841Z,45.63
2019-04-29T02:23:58.999Z,46.00
2019-04-29T02:26:26.239Z,37.58
2019-04-29T02:28:54.513Z,41.28
2019-04-29T02:31:41.769Z,42.53
2019-04-29T02:34:09.091Z,39.65
2019-04-29T02:36:36.518Z,37.55
2019-04-29T02:39:20.551Z,36.73
2019-04-29T02:42:06.379Z,39.55
2019-04-29T02:44:33.690Z,37.40
2019-04-29T02:47:00.933Z,35.38
2019-04-29T02:49:28.180Z,39.78
2019-04-29T02:51:55.450Z,37.50
2019-04-29T02:54:24.519Z,39.30
2019-04-29T02:56:56.197Z,36.58
2019-04-29T02:59:28.349Z,32.63
2019-04-29T03:02:12.420Z,40.92
2019-04-29T03:04:58.237Z,32.23
2019-04-29T03:07:25.473Z,35.10
2019-04-29T03:09:52.713Z,32.63
2019-04-29T03:12:20.002Z,32.78
2019-04-29T03:14:47.273Z,36.25
2019-04-29T03:17:18.343Z,35.68
2019-04-29T03:19:51.363Z,36.55
2019-04-29T03:22:18.600Z,27.37
2019-04-29T03:24:46.432Z,30.62
2019-04-29T03:27:13.714Z,40.05
2019-04-29T03:29:41.021Z,31.48
2019-04-29T03:32:08.294Z,30.82
2019-04-29T03:34:35.814Z,34.83
2019-04-29T03:37:03.036Z,30.92
2019-04-29T03:39:30.290Z,34.98
2019-04-29T03:41:58.031Z,30.43
2019-04-29T03:44:25.279Z,27.48
2019-04-29T03:46:52.525Z,28.40
2019-04-29T03:49:19.840Z,38.95
2019-04-29T03:51:47.085Z,28.65
2019-04-29T03:54:14.359Z,28.92
2019-04-29T03:56:43.019Z,28.00
2019-04-29T03:59:10.256Z,32.60
2019-04-29T04:01:39.358Z,31.12
2019-04-29T04:04:11.489Z,27.93
2019-04-29T04:06:55.797Z,29.50
2019-04-29T04:09:24.894Z,29.65
2019-04-29T04:11:52.131Z,30.20
2019-04-29T04:14:19.524Z,24.20
2019-04-29T04:17:03.657Z,32.33
2019-04-29T04:19:32.697Z,26.23
2019-04-29T04:21:59.928Z,30.40
2019-04-29T04:24:27.219Z,26.85
2019-04-29T04:26:54.458Z,30.52
2019-04-29T04:29:21.950Z,29.65
2019-04-29T04:31:49.302Z,28.27
2019-04-29T04:34:16.531Z,28.45
2019-04-29T04:36:44.456Z,31.93
2019-04-29T04:39:11.853Z,29.82
2019-04-29T04:41:39.109Z,30.25
2019-04-29T04:44:06.825Z,25.92
2019-04-29T04:46:34.261Z,27.40
2019-04-29T04:49:01.480Z,31.97
2019-04-29T04:51:28.731Z,26.65
2019-04-29T04:53:56.009Z,30.48
2019-04-29T04:56:23.224Z,30.60
2019-04-29T04:58:50.424Z,30.40
2019-04-29T05:01:17.888Z,25.77
2019-04-29T05:03:45.146Z,25.25
2019-04-29T05:06:12.684Z,26.97
2019-04-29T05:08:40.071Z,28.12
2019-04-29T05:11:07.653Z,27.65
2019-04-29T05:13:34.934Z,26.37
2019-04-29T05:16:02.188Z,33.67
2019-04-29T05:18:29.608Z,30.82
2019-04-29T05:20:56.834Z,28.70
2019-04-29T05:23:24.124Z,27.82
2019-04-29T05:25:51.347Z,29.82
2019-04-29T05:28:18.620Z,23.55
2019-04-29T05:30:45.891Z,31.80
2019-04-29T05:33:13.158Z,30.77
2019-04-29T05:35:56.714Z,27.80
2019-04-29T05:38:25.650Z,23.83
2019-04-29T05:40:52.967Z,26.20
2019-04-29T05:43:22.074Z,33.75
2019-04-29T05:46:03.213Z,32.55
2019-04-29T05:51:04.554Z,28.83
2019-04-29T05:53:42.205Z,25.17
2019-04-29T05:56:09.420Z,31.52
2019-04-29T05:58:37.699Z,23.35
2019-04-29T06:01:08.126Z,31.27
2019-04-29T06:03:37.827Z,26.97
2019-04-29T06:06:04.432Z,26.37
2019-04-29T06:08:34.569Z,32.40
2019-04-29T06:11:00.914Z,30.60
2019-04-29T06:13:28.159Z,26.05
2019-04-29T06:15:55.472Z,24.43
2019-04-29T06:18:23.788Z,27.82
2019-04-29T06:20:51.121Z,28.00
2019-04-29T06:23:22.769Z,31.80
2019-04-29T06:25:47.929Z,28.77
2019-04-29T06:28:15.167Z,27.07
2019-04-29T06:30:45.273Z,30.37
2019-04-29T06:33:13.020Z,26.15
2019-04-29T06:35:43.354Z,29.65
2019-04-29T06:38:09.741Z,30.60
2019-04-29T06:40:37.037Z,30.48
2019-04-29T06:43:04.210Z,35.30
2019-04-29T06:45:31.523Z,29.90
2019-04-29T06:47:59.167Z,28.62
2019-04-29T06:50:26.369Z,30.43
2019-04-29T06:52:53.634Z,30.45
2019-04-29T06:55:20.935Z,28.85
2019-04-29T06:57:49.283Z,24.15
2019-04-29T07:00:17.533Z,27.65
2019-04-29T07:02:49.751Z,34.43
2019-04-29T07:05:14.651Z,32.98
2019-04-29T07:07:42.341Z,29.80
2019-04-29T07:10:09.692Z,33.67
2019-04-29T07:12:36.949Z,28.30
2019-04-29T07:15:07.544Z,28.42
2019-04-29T07:17:36.442Z,27.87
2019-04-29T07:20:03.371Z,26.77
2019-04-29T07:22:32.119Z,25.77
2019-04-29T07:24:59.341Z,26.12
2019-04-29T07:27:26.606Z,28.62
2019-04-29T07:29:53.896Z,22.73
2019-04-29T07:32:21.114Z,24.30
2019-04-29T07:34:48.381Z,27.32
2019-04-29T07:37:16.837Z,21.70
2019-04-29T07:39:44.192Z,24.00
2019-04-29T07:42:11.485Z,26.12
2019-04-29T07:44:57.988Z,26.75
2019-04-29T07:47:29.514Z,26.82
2019-04-29T07:49:55.211Z,29.12
2019-04-29T07:52:23.651Z,28.00
2019-04-29T07:54:55.021Z,26.23
2019-04-29T07:57:19.932Z,34.92
2019-04-29T07:59:47.872Z,33.75
2019-04-29T08:02:15.145Z,29.20
2019-04-29T08:04:43.417Z,26.70
2019-04-29T08:07:10.728Z,30.80
2019-04-29T08:09:39.832Z,50.40
2019-04-29T08:12:08.827Z,37.13
2019-04-29T08:14:36.171Z,29.87
2019-04-29T08:17:03.394Z,32.42
2019-04-29T08:19:31.566Z,29.27
2019-04-29T08:21:59.233Z,24.27
2019-04-29T08:24:27.851Z,24.10
2019-04-29T08:26:55.242Z,26.50
2019-04-29T08:29:22.534Z,27.10
2019-04-29T08:31:51.872Z,29.35
2019-04-29T08:34:22.974Z,34.00
2019-04-29T08:36:47.880Z,27.85
2019-04-29T08:39:15.141Z,27.75
2019-04-29T08:41:42.379Z,26.23
2019-04-29T08:44:20.405Z,30.85
2019-04-29T08:46:53.061Z,25.88
2019-04-29T08:49:20.388Z,31.25
2019-04-29T08:51:48.142Z,29.50
2019-04-29T08:54:16.154Z,28.83
2019-04-29T08:57:01.605Z,29.27
2019-04-29T08:59:15.572Z,27.07
2019-04-29T09:01:48.770Z,33.85
2019-04-29T09:04:16.678Z,31.52
2019-04-29T09:06:43.956Z,27.52
2019-04-29T09:09:27.931Z,26.00
2019-04-29T09:11:43.517Z,36.70
2019-04-29T09:14:12.739Z,33.33
2019-04-29T09:16:38.776Z,27.25
2019-04-29T09:19:06.098Z,30.12
2019-04-29T09:21:33.347Z,26.25
2019-04-29T09:24:00.652Z,28.65
2019-04-29T09:26:29.867Z,29.18
2019-04-29T09:28:59.837Z,32.60
2019-04-29T09:31:26.196Z,28.50
2019-04-29T09:34:06.091Z,30.05
2019-04-29T09:36:22.582Z,27.90
2019-04-29T09:38:50.057Z,30.17
2019-04-29T09:41:24.949Z,30.20
2019-04-29T09:43:59.232Z,28.38
2019-04-29T09:46:29.930Z,29.90
2019-04-29T09:48:56.760Z,28.25
2019-04-29T09:51:27.926Z,32.67
2019-04-29T09:53:54.712Z,29.50
2019-04-29T09:56:21.934Z,28.00
2019-04-29T09:58:51.049Z,27.70
2019-04-29T10:01:29.149Z,36.38
2019-04-29T10:04:04.187Z,31.97
2019-04-29T10:06:39.105Z,34.18
2019-04-29T10:09:07.129Z,31.12
2019-04-29T10:11:34.556Z,25.25
2019-04-29T10:14:01.782Z,31.87
2019-04-29T10:16:37.194Z,29.10
2019-04-29T10:19:22.623Z,26.17
2019-04-29T10:21:49.967Z,26.77
2019-04-29T10:24:17.204Z,44.58
2019-04-29T10:26:44.431Z,44.70
2019-04-29T10:29:13.781Z,31.10
2019-04-29T10:34:10.606Z,30.17
2019-04-29T10:36:37.909Z,30.43
2019-04-29T10:39:08.488Z,30.12
2019-04-29T10:41:40.247Z,31.07
2019-04-29T10:44:15.278Z,40.78
2019-04-29T10:46:49.866Z,28.95
2019-04-29T10:49:18.932Z,37.30
2019-04-29T10:51:46.202Z,26.15
2019-04-29T10:54:14.342Z,29.30
2019-04-29T10:56:42.301Z,25.95
2019-04-29T10:59:11.142Z,29.87
2019-04-29T11:02:00.746Z,27.50
2019-04-29T11:04:17.005Z,31.62
2019-04-29T11:06:44.277Z,31.48
2019-04-29T11:09:14.468Z,28.95
2019-04-29T11:11:44.309Z,27.20
2019-04-29T11:14:11.555Z,26.50
2019-04-29T11:16:46.379Z,21.52
2019-04-29T11:19:07.855Z,24.55
2019-04-29T11:21:38.646Z,20.72
2019-04-29T11:24:11.015Z,26.90
2019-04-29T11:26:44.819Z,19.10
2019-04-29T11:29:12.662Z,22.52
2019-04-29T11:31:39.891Z,25.62
2019-04-29T11:34:15.837Z,26.50
2019-04-29T11:36:44.282Z,19.30
2019-04-29T11:39:13.914Z,20.50
2019-04-29T11:41:40.851Z,19.07
2019-04-29T11:44:08.061Z,20.88
2019-04-29T11:46:35.309Z,17.75
2019-04-29T11:49:04.624Z,16.73
2019-04-29T11:51:44.193Z,16.63
2019-04-29T11:54:02.922Z,26.90
2019-04-29T11:56:31.569Z,21.10
2019-04-29T11:59:00.687Z,16.55
2019-04-29T12:01:42.684Z,14.38
2019-04-29T12:04:18.440Z,15.05
2019-04-29T12:06:45.732Z,20.43
2019-04-29T12:09:12.971Z,18.35
2019-04-29T12:11:40.894Z,21.48
2019-04-29T12:14:25.224Z,18.07
2019-04-29T12:17:10.708Z,14.53
2019-04-29T12:19:45.899Z,20.12
2019-04-29T12:22:26.833Z,18.42
2019-04-29T12:24:43.151Z,16.30
2019-04-29T12:27:14.872Z,27.37
2019-04-29T12:29:40.244Z,35.78
2019-04-29T12:32:09.615Z,24.90
2019-04-29T12:34:50.517Z,21.10
2019-04-29T12:37:19.530Z,16.50
2019-04-29T12:39:48.549Z,19.80
2019-04-29T12:42:35.701Z,19.45
2019-04-29T12:45:19.466Z,19.52
2019-04-29T12:47:44.783Z,17.80
2019-04-29T12:50:12.001Z,16.73
2019-04-29T12:52:39.245Z,14.73
2019-04-29T12:55:19.862Z,21.05
2019-04-29T12:57:37.134Z,12.33
2019-04-29T13:00:07.696Z,14.70
2019-04-29T13:02:40.125Z,15.10
2019-04-29T13:05:15.157Z,18.67
2019-04-29T13:07:44.331Z,14.23
2019-04-29T13:10:28.163Z,12.58
2019-04-29T13:12:58.036Z,14.25
2019-04-29T13:15:35.397Z,17.92
2019-04-29T13:18:12.747Z,21.90
2019-04-29T13:20:33.524Z,15.25
2019-04-29T13:23:16.964Z,15.60
2019-04-29T13:25:29.800Z,13.85
2019-04-29T13:28:03.679Z,20.02
2019-04-29T13:30:26.160Z,14.73
2019-04-29T13:32:53.452Z,14.73
2019-04-29T13:35:20.747Z,14.60
2019-04-29T13:37:48.059Z,16.07
2019-04-29T13:40:15.712Z,15.68
2019-04-29T13:42:48.527Z,12.07
2019-04-29T13:45:14.135Z,17.25
2019-04-29T13:47:52.102Z,13.73
2019-04-29T13:50:38.757Z,15.95
2019-04-29T13:52:53.130Z,21.45
2019-04-29T13:55:46.730Z,31.12
2019-04-29T13:57:50.804Z,15.83
2019-04-29T14:00:38.798Z,19.07
2019-04-29T14:03:11.601Z,12.37
2019-04-29T14:05:38.040Z,14.78
2019-04-29T14:08:06.035Z,13.75
2019-04-29T14:10:33.287Z,15.63
2019-04-29T14:13:09.843Z,21.90
2019-04-29T14:15:29.766Z,12.50
2019-04-29T14:17:58.658Z,14.75
2019-04-29T14:20:25.891Z,20.20
2019-04-29T14:22:53.792Z,16.23
2019-04-29T14:25:21.049Z,17.85
2019-04-29T14:27:48.282Z,16.73
2019-04-29T14:30:20.469Z,19.32
2019-04-29T14:32:49.724Z,12.88
2019-04-29T14:35:18.578Z,17.40
2019-04-29T14:37:54.942Z,11.93
2019-04-29T14:40:14.821Z,15.15
2019-04-29T14:42:57.054Z,16.42
2019-04-29T14:45:26.358Z,12.53
2019-04-29T14:48:11.898Z,18.52
2019-04-29T14:50:39.250Z,15.70
2019-04-29T14:53:06.505Z,23.00
2019-04-29T14:55:33.850Z,15.78
2019-04-29T14:58:01.243Z,33.48
2019-04-29T15:00:46.829Z,14.23
2019-04-29T15:03:14.157Z,20.02
2019-04-29T15:05:41.486Z,14.40
2019-04-29T15:08:08.853Z,19.73
2019-04-29T15:10:37.637Z,19.82
2019-04-29T15:13:20.659Z,16.65
2019-04-29T15:15:48.067Z,10.50
2019-04-29T15:18:45.835Z,12.40
2019-04-29T15:21:32.307Z,14.58
2019-04-29T15:23:50.541Z,16.80
2019-04-29T15:26:20.291Z,23.47
2019-04-29T15:28:52.561Z,18.40
2019-04-29T15:31:20.290Z,13.18
2019-04-29T15:33:47.575Z,17.92
2019-04-29T15:36:14.981Z,19.75
2019-04-29T15:38:42.344Z,14.75
2019-04-29T15:41:09.834Z,18.90
2019-04-29T15:43:47.040Z,18.98
2019-04-29T15:46:11.178Z,14.33
2019-04-29T15:48:36.077Z,9.98
2019-04-29T15:51:03.369Z,8.93
2019-04-29T15:53:33.942Z,12.75
2019-04-29T15:56:08.604Z,13.05
2019-04-29T15:58:30.390Z,11.03
2019-04-29T16:01:11.749Z,20.62
2019-04-29T16:03:26.691Z,15.13
2019-04-29T16:06:21.016Z,18.55
2019-04-29T16:08:52.150Z,23.90
2019-04-29T16:11:39.341Z,13.10
2019-04-29T16:14:09.910Z,26.42
2019-04-29T16:19:07.990Z,16.50
2019-04-29T16:21:39.318Z,16.10
2019-04-29T16:24:24.314Z,13.65
2019-04-29T16:26:32.905Z,13.48
2019-04-29T16:29:00.329Z,19.23
2019-04-29T16:31:27.574Z,16.70
2019-04-29T16:33:55.806Z,12.90
2019-04-29T16:36:23.086Z,15.45
2019-04-29T16:38:51.383Z,36.08
2019-04-29T16:41:24.333Z,18.50
2019-04-29T16:43:53.415Z,29.87
2019-04-29T16:46:35.731Z,11.75
2019-04-29T16:48:57.626Z,15.48
2019-04-29T16:51:24.876Z,13.53
2019-04-29T16:53:52.191Z,11.65
2019-04-29T16:56:20.124Z,14.45
2019-04-29T16:58:47.868Z,13.88
2019-04-29T17:01:15.174Z,15.20
2019-04-29T17:03:42.511Z,13.70
2019-04-29T17:06:10.152Z,10.78
2019-04-29T17:11:35.838Z,161.62
2019-04-29T17:14:09.879Z,29.50
2019-04-29T17:16:32.255Z,17.27
2019-04-29T17:18:59.466Z,21.07
2019-04-29T17:21:27.349Z,10.23
2019-04-29T17:23:55.321Z,22.22
2019-04-29T17:26:25.343Z,14.05
2019-04-29T17:29:11.856Z,14.70
2019-04-29T17:31:34.160Z,24.20
2019-04-29T17:34:29.417Z,13.58
2019-04-29T17:35:14.558Z,15.60
2019-04-29T17:36:44.171Z,20.55
2019-04-29T17:39:11.390Z,13.62
2019-04-29T17:41:38.745Z,11.70
2019-04-29T17:44:08.503Z,14.60
2019-04-29T17:46:53.960Z,21.33
2019-04-29T17:49:29.499Z,22.50
2019-04-29T17:52:01.493Z,16.40
2019-04-29T17:54:31.821Z,23.50
2019-04-29T17:57:24.545Z,20.57
2019-04-29T17:59:42.226Z,17.73
2019-04-29T18:02:21.859Z,27.40
2019-04-29T18:04:49.675Z,33.28
2019-04-29T18:07:19.072Z,26.68
2019-04-29T18:09:48.094Z,29.92
2019-04-29T18:12:17.179Z,32.15
2019-04-29T18:14:44.764Z,25.95
2019-04-29T18:17:24.139Z,33.33
2019-04-29T18:19:45.188Z,33.20
2019-04-29T18:24:55.490Z,22.30
2019-04-29T18:27:27.415Z,32.93
2019-04-29T18:29:55.769Z,46.58
2019-04-29T18:32:33.491Z,57.78
2019-04-29T18:34:53.398Z,55.00
2019-04-29T18:37:21.126Z,31.85
2019-04-29T18:39:49.034Z,24.98
2019-04-29T18:42:16.346Z,21.20
2019-04-29T18:44:57.647Z,20.15
2019-04-29T18:47:22.469Z,22.07
2019-04-29T18:49:47.298Z,22.45
2019-04-29T18:52:25.688Z,21.57
2019-04-29T18:54:45.022Z,19.40
2019-04-29T18:57:24.527Z,19.02
2019-04-29T18:59:42.154Z,31.70
2019-04-29T19:02:09.654Z,29.70
2019-04-29T19:04:38.796Z,20.90
2019-04-29T19:07:06.107Z,20.10
2019-04-29T19:09:38.163Z,27.22
2019-04-29T19:12:05.468Z,20.65
2019-04-29T19:14:32.788Z,33.58
2019-04-29T19:17:01.431Z,26.68
2019-04-29T19:19:30.697Z,36.53
2019-04-29T19:22:00.848Z,25.75
2019-04-29T19:24:31.585Z,22.37
2019-04-29T19:27:00.625Z,26.10
2019-04-29T19:29:26.781Z,24.70
2019-04-29T19:31:54.939Z,22.13
2019-04-29T19:34:22.278Z,22.55
2019-04-29T19:36:50.832Z,20.27
2019-04-29T19:39:21.848Z,21.12
2019-04-29T19:41:50.451Z,23.12
2019-04-29T19:44:16.739Z,29.77
2019-04-29T19:46:45.385Z,31.50
2019-04-29T19:49:13.153Z,28.27
2019-04-29T19:51:43.680Z,21.62
2019-04-29T19:54:09.517Z,17.87
2019-04-29T19:56:36.811Z,23.60
2019-04-29T19:59:12.037Z,19.37
2019-04-29T20:01:34.057Z,23.90
2019-04-29T20:04:16.745Z,19.50
2019-04-29T20:06:41.177Z,23.77
2019-04-29T20:09:17.523Z,28.52
2019-04-29T20:11:40.266Z,29.10
2019-04-29T20:14:17.668Z,28.60
2019-04-29T20:16:44.830Z,23.35
2019-04-29T20:19:19.838Z,23.73
2019-04-29T20:21:42.466Z,18.50
2019-04-29T20:24:15.613Z,23.90
2019-04-29T20:26:38.964Z,24.07
2019-04-29T20:29:07.393Z,23.57
2019-04-29T20:31:37.114Z,21.00
2019-04-29T20:34:05.608Z,19.23
2019-04-29T20:36:40.909Z,28.20
2019-04-29T20:39:02.146Z,22.15
2019-04-29T20:41:40.578Z,26.85
2019-04-29T20:44:05.904Z,26.12
2019-04-29T20:46:42.556Z,22.02
2019-04-29T20:48:59.944Z,20.62
2019-04-29T20:51:32.230Z,15.45
2019-04-29T20:53:58.384Z,16.62
2019-04-29T20:56:29.518Z,14.45
2019-04-29T20:58:55.146Z,17.92
2019-04-29T21:01:25.510Z,10.43
2019-04-29T21:03:56.358Z,12.13
2019-04-29T21:06:24.079Z,15.53
2019-04-29T21:08:52.217Z,12.33
2019-04-29T21:11:27.427Z,13.32
2019-04-29T21:14:13.422Z,14.40
2019-04-29T21:16:43.510Z,18.27
2019-04-29T21:19:12.591Z,13.10
2019-04-29T21:21:41.765Z,13.62
2019-04-29T21:24:13.756Z,16.75
2019-04-29T21:26:44.365Z,14.07
2019-04-29T21:29:10.770Z,12.98
2019-04-29T21:31:36.480Z,19.40
2019-04-29T21:34:05.448Z,13.03
2019-04-29T21:36:39.362Z,11.33
2019-04-29T21:39:11.221Z,11.93
2019-04-29T21:41:45.872Z,14.15
2019-04-29T21:44:13.526Z,8.85
2019-04-29T21:46:40.777Z,14.43
2019-04-29T21:49:11.641Z,9.65
2019-04-29T21:51:41.777Z,11.97
2019-04-29T21:54:09.689Z,15.13
2019-04-29T21:56:39.795Z,10.70
2019-04-29T21:59:09.237Z,11.85
2019-04-29T22:01:37.485Z,16.95
2019-04-29T22:04:04.668Z,11.55
2019-04-29T22:06:32.367Z,12.80
2019-04-29T22:09:01.606Z,10.23
2019-04-29T22:11:30.523Z,10.15
2019-04-29T22:13:57.763Z,11.40
2019-04-29T22:16:25.127Z,14.03
2019-04-29T22:18:55.363Z,9.98
2019-04-29T22:21:23.489Z,13.20
2019-04-29T22:23:52.222Z,11.03
2019-04-29T22:26:23.439Z,11.08
2019-04-29T22:28:53.174Z,12.25
2019-04-29T22:31:18.311Z,13.45
2019-04-29T22:33:48.725Z,16.42
2019-04-29T22:36:18.025Z,16.30
2019-04-29T22:38:48.033Z,15.05
2019-04-29T22:41:20.223Z,13.25
2019-04-29T22:43:51.540Z,17.23
2019-04-29T22:46:19.118Z,10.75
2019-04-29T22:48:48.630Z,13.80
2019-04-29T22:51:18.890Z,19.05
2019-04-29T22:53:48.088Z,15.60
2019-04-29T22:56:15.803Z,11.85
2019-04-29T22:58:43.942Z,14.10
2019-04-29T23:01:12.036Z,8.80
2019-04-29T23:03:39.333Z,13.70
2019-04-29T23:06:08.391Z,12.88
2019-04-29T23:08:38.102Z,12.65
2019-04-29T23:11:05.477Z,13.08
2019-04-29T23:13:32.787Z,14.93
2019-04-29T23:16:02.153Z,14.98
2019-04-29T23:18:41.107Z,9.03
2019-04-29T23:21:04.029Z,13.22
2019-04-29T23:23:33.714Z,10.38
2019-04-29T23:26:04.048Z,11.88
2019-04-29T23:28:29.024Z,14.68
2019-04-29T23:30:56.358Z,12.25
2019-04-29T23:33:25.849Z,13.20
2019-04-29T23:35:52.637Z,14.00
2019-04-29T23:38:19.925Z,12.95
2019-04-29T23:40:49.637Z,15.25
2019-04-29T23:43:19.994Z,14.87
2019-04-29T23:45:45.425Z,12.33
2019-04-29T23:48:12.747Z,17.92
2019-04-29T23:50:40.244Z,16.48
2019-04-29T23:53:07.559Z,17.85
2019-04-29T23:55:35.553Z,13.45
2019-04-29T23:58:06.147Z,12.50
